East Carver, Massachusetts
Current Conditions -  °F | °C
As of 5:52 AM on Monday 20 Oct 2014 (Local Time) from KPYM Reporting Station
Clear Clear  
Wind Chill: 31°   Ceiling: Unl
Heat Index: 36°   Visibility: 10mi
Dew Point: 28°   Wind: 6mph
Humidity: 73%   Direction: 270°W
Pressure: 30.03"   Gusts: NA
Location:  41.9272°N, 70.7516°W
Report Text: KPYM 200952Z AUTO 27005KT 10SM CLR 02/M02 A3003 RMK AO2 SLP169 T00221022
Loading
Personal Weather Stations






























Interactive Weather Map
Tropical Storm Tracking
New forecast layout! Learn more

10-Day Weather Forecast

Advertisements
Track Severe Weather on mobile